San Luis, MO

1:52 AM CST en Enero 30, 2015 (GMT -0600)
Soulard | Change Station
CLOSE
Current Station
Estación meteorológica personal
Location: Saint Louis, MO
Altura: 535 ft
Estaciones meteorológicas cercanas
Aviso en curso: Special Statement

Alt 535 ft 38.61 °N, 90.21 °W | Updated 7 minutes ago

Nublado
Nublado
34.0 ° F
Sensación térmica 26 ° F
N
10.4
Viento Variable Viento desde Oeste

Hoy
Alta -- | Baja -- ° F
--% Posibilidad de precipitaciones
Ayer
Alta -- | Baja -- ° F
Precip. -- pul
7:08 AM 5:20 PM
Gibosa creciente, 81% visible
Presión 30.47 pul
Visibilidad 10.0 Millas
Nubes Muy nublado 3200 ft
Vientos helados 26 ° F
Punto de rocío 23 ° F
Humedad 63%
Precipitaciones 0.00 pul
Espesor de la nieve No disponible.
UV 0 de una escala de 12
Polen 2.20 de una escala de 12
Calidad del aire No disponible.
Flu Activity No disponible.
METAR KSTL 300651Z 31009KT 10SM BKN032 02/M05 A3045 RMK AO2 SLP318 T00171050

More Conditions Fewer Conditions

Presión 30.47 pul
Visibilidad 10.0 Millas
Nubes Muy nublado 3200 ft
Vientos helados 26 ° F
Punto de rocío 23 ° F
Humedad 63%
Precipitaciones 0.00 pul
Espesor de la nieve No disponible.
UV 0 de una escala de 12
Polen 2.20 de una escala de 12
Calidad del aire No disponible.
Flu Activity No disponible.
METAR KSTL 300651Z 31009KT 10SM BKN032 02/M05 A3045 RMK AO2 SLP318 T00171050

More Conditions Fewer Conditions

10-Day Weather Forecast

Almanac

Astronomía

Jan. 30, 2015 Salida Puesta
Hora real
Crepúsculo civil
Crepúsculo náutico
Crepúsculo astronómico
Luna
Horas de luz
Horas de luz
Tomorrow will be .
, % of the Moon is Illuminated

Extremos de hoy

Máximos del estado Bajos del estado

Community

WunderPhotos

Upload Photos

1,791,726 ¡fotos cargadas!

WunderBlogs® & News

Nearby

Calidad del aire

  Calidad del aire Índice AQ Contaminante
Not available.

Grosos de nieve

Estación Profundido Altura

Actividad de terremotos

Ciudad Distance Mag. Tiempo y dato
Magnitud mínima muestra es 2,5.

Temperaturas de aguas costeras

Lugar Temperatura

Estaciones meteorológicas cercanas